Impacts METAR Board
IDs:

KDTW - Detroit Metro/Wayne, MI, US

Updated at: 2000 UTC 24 Apr 2018
Potential Impact None Slight Moderate High
Time 24/08Z 24/09Z 24/10Z 24/11Z 24/12Z 24/13Z 24/14Z 24/15Z 24/16Z 24/17Z 24/18Z 24/19Z 24/20Z
Temp55 56 53 53 53 54 56 57 54 54 54 55 54
Dewpt44 44 49 47 46 46 46 48 49 49 50 50 50
Altim30.14 30.14 30.13 30.14 30.15 30.14 30.12 30.10 30.09 30.08 30.07 30.04 30.03
VIS10 5 4 7 1.75 3 8 9 2.5 4 2 1.75 1.25
CIG35 39 40 40 25 25 35 65 7 7 5 8 8
CoverOVCOVCOVCOVCOVCOVCOVCOVCOVCOVCOVCOVCOVC
FltCatVFRMVFRMVFRVFRIFRMVFRVFRVFRIFRIFRIFRIFRIFR
WX--HZ-RA-RA-RA-RA-----RA-RA-RA BR-RARA BR
WDir3019017016010090110160140140130120110
WSpd3 10 4 9 4 4 6 9 8 9 6 9 8
WGst-- -- -- -- -- -- -- -- -- -- -- -- --
Raw hourly METARs
KDTW 240753Z 03003KT 10SM BKN035 OVC060 13/07 A3014 RMK AO2 SLP203 T01280067
KDTW 240853Z 19010KT 5SM HZ OVC039 13/07 A3014 RMK AO2 SLP206 T01330067 55002
KDTW 240959Z 17004KT 4SM -RA SCT020 OVC040 12/09 A3013 RMK AO2 P0000 T01170094
KDTW 241053Z 16009KT 130V190 7SM -RA SCT020 OVC040 12/08 A3014 RMK AO2 SLP204 P0000 T01170083
KDTW 241153Z 10004KT 1 3/4SM -RA BKN025 OVC040 12/08 A3015 RMK AO2 TWR VIS 3 SLP208 P0001 60001 70001 T01170078 10133 20111 53001
KDTW 241253Z 09004KT 3SM -RA BKN025 BKN040 OVC060 12/08 A3014 RMK AO2 SLP206 P0000 T01220078
KDTW 241353Z 11006KT 8SM BKN035 OVC050 13/08 A3012 RMK AO2 RAE07 SLP201 P0000 T01330078
KDTW 241453Z 16009KT 9SM SCT035 OVC065 14/09 A3010 RMK AO2 SLP194 60000 T01390089 58015
KDTW 241553Z 14008KT 2 1/2SM -RA BKN007 OVC035 12/09 A3009 RMK AO2 SFC VIS 3 RAB28 SLP191 P0000 T01220094
KDTW 241653Z 14009KT 4SM -RA OVC007 12/09 A3008 RMK AO2 SLP187 P0000 T01220094
KDTW 241753Z 13006KT 2SM -RA BR OVC005 12/10 A3007 RMK AO2 SLP181 P0000 60000 T01220100 10144 20117 58012
KDTW 241903Z 12009KT 1 3/4SM R03R/5500VP6000FT -RA BKN008 OVC015 13/10 A3004 RMK AO2 P0000 T01280100
KDTW 241953Z 11008KT 1 1/4SM R03R/5000VP6000FT RA BR BKN008 OVC015 12/10 A3003 RMK AO2 TWR VIS 2 SLP170 P0001 T01220100 $



Page loaded:  20:43 UTC  |   01:43 PM Pacific  |   02:43 PM Mountain  |   03:43 PM Central  |   04:43 PM Eastern

 

ADVISORIES

FORECASTS

FORECASTS

OBSERVATIONS

USER TOOLS

ABOUT US